sensor_id;sensor_type;location;lat;lon;timestamp;temperature;humidity
12959;DHT22;6544;51.666;6.634;2023-08-24T00:00:24;21.20;1.00
12959;DHT22;6544;51.666;6.634;2023-08-24T00:02:51;21.20;1.00
12959;DHT22;6544;51.666;6.634;2023-08-24T00:05:19;21.10;1.00
12959;DHT22;6544;51.666;6.634;2023-08-24T00:07:46;21.00;1.00
12959;DHT22;6544;51.666;6.634;2023-08-24T00:10:14;21.00;1.00
12959;DHT22;6544;51.666;6.634;2023-08-24T00:12:41;21.00;1.00
12959;DHT22;6544;51.666;6.634;2023-08-24T00:15:08;21.00;1.00
12959;DHT22;6544;51.666;6.634;2023-08-24T00:17:36;21.10;1.00
12959;DHT22;6544;51.666;6.634;2023-08-24T00:20:06;21.00;1.00
12959;DHT22;6544;51.666;6.634;2023-08-24T00:22:37;20.80;1.00
12959;DHT22;6544;51.666;6.634;2023-08-24T00:25:06;20.90;1.00
12959;DHT22;6544;51.666;6.634;2023-08-24T00:27:32;21.00;1.00
12959;DHT22;6544;51.666;6.634;2023-08-24T00:29:59;20.90;1.00
12959;DHT22;6544;51.666;6.634;2023-08-24T00:32:26;20.80;1.00
12959;DHT22;6544;51.666;6.634;2023-08-24T00:34:53;20.80;1.00
12959;DHT22;6544;51.666;6.634;2023-08-24T00:37:20;20.70;1.00
12959;DHT22;6544;51.666;6.634;2023-08-24T00:39:48;20.60;1.00
12959;DHT22;6544;51.666;6.634;2023-08-24T00:42:15;20.70;1.00
12959;DHT22;6544;51.666;6.634;2023-08-24T00:44:42;20.80;1.00
12959;DHT22;6544;51.666;6.634;2023-08-24T00:47:10;20.70;1.00
12959;DHT22;6544;51.666;6.634;2023-08-24T00:49:37;20.70;1.00
12959;DHT22;6544;51.666;6.634;2023-08-24T00:52:04;20.70;1.00
12959;DHT22;6544;51.666;6.634;2023-08-24T00:54:32;20.60;1.00
12959;DHT22;6544;51.666;6.634;2023-08-24T00:57:00;20.50;1.00
12959;DHT22;6544;51.666;6.634;2023-08-24T00:59:27;20.60;1.00
12959;DHT22;6544;51.666;6.634;2023-08-24T01:01:55;20.60;1.00
12959;DHT22;6544;51.666;6.634;2023-08-24T01:04:23;20.60;1.00
12959;DHT22;6544;51.666;6.634;2023-08-24T01:06:50;20.50;1.00
12959;DHT22;6544;51.666;6.634;2023-08-24T01:09:18;20.30;1.00
12959;DHT22;6544;51.666;6.634;2023-08-24T01:11:58;20.30;1.00
12959;DHT22;6544;51.666;6.634;2023-08-24T01:14:38;20.40;1.00
12959;DHT22;6544;51.666;6.634;2023-08-24T01:17:09;20.30;1.00
12959;DHT22;6544;51.666;6.634;2023-08-24T01:19:41;20.20;1.00
12959;DHT22;6544;51.666;6.634;2023-08-24T01:22:20;20.10;1.00
12959;DHT22;6544;51.666;6.634;2023-08-24T01:24:54;20.20;1.00
12959;DHT22;6544;51.666;6.634;2023-08-24T01:27:25;20.10;1.00
12959;DHT22;6544;51.666;6.634;2023-08-24T01:29:53;20.10;1.00
12959;DHT22;6544;51.666;6.634;2023-08-24T01:32:22;20.20;1.00
12959;DHT22;6544;51.666;6.634;2023-08-24T01:34:50;20.20;1.00
12959;DHT22;6544;51.666;6.634;2023-08-24T01:37:17;20.10;1.00
12959;DHT22;6544;51.666;6.634;2023-08-24T01:39:49;20.00;1.00
12959;DHT22;6544;51.666;6.634;2023-08-24T01:42:21;19.90;1.00
12959;DHT22;6544;51.666;6.634;2023-08-24T01:44:56;19.90;1.00
12959;DHT22;6544;51.666;6.634;2023-08-24T01:47:26;19.70;1.00
12959;DHT22;6544;51.666;6.634;2023-08-24T01:49:54;19.90;1.00
12959;DHT22;6544;51.666;6.634;2023-08-24T01:52:21;20.00;1.00
12959;DHT22;6544;51.666;6.634;2023-08-24T01:54:49;20.10;1.00
12959;DHT22;6544;51.666;6.634;2023-08-24T01:57:16;20.10;1.00
12959;DHT22;6544;51.666;6.634;2023-08-24T01:59:43;20.10;1.00
12959;DHT22;6544;51.666;6.634;2023-08-24T02:02:11;20.00;1.00
12959;DHT22;6544;51.666;6.634;2023-08-24T02:04:38;19.90;1.00
12959;DHT22;6544;51.666;6.634;2023-08-24T02:07:05;19.90;1.00
12959;DHT22;6544;51.666;6.634;2023-08-24T02:09:31;19.80;1.00
12959;DHT22;6544;51.666;6.634;2023-08-24T02:11:58;19.80;1.00
12959;DHT22;6544;51.666;6.634;2023-08-24T02:14:25;19.90;1.00
12959;DHT22;6544;51.666;6.634;2023-08-24T02:16:52;19.80;1.00
12959;DHT22;6544;51.666;6.634;2023-08-24T02:19:21;19.90;1.00
12959;DHT22;6544;51.666;6.634;2023-08-24T02:21:47;19.90;1.00
12959;DHT22;6544;51.666;6.634;2023-08-24T02:24:14;19.80;1.00
12959;DHT22;6544;51.666;6.634;2023-08-24T02:26:41;19.80;1.00
12959;DHT22;6544;51.666;6.634;2023-08-24T02:29:08;19.80;1.00
12959;DHT22;6544;51.666;6.634;2023-08-24T02:31:35;19.80;1.00
12959;DHT22;6544;51.666;6.634;2023-08-24T02:34:02;19.60;1.00
12959;DHT22;6544;51.666;6.634;2023-08-24T02:36:30;19.40;1.00
12959;DHT22;6544;51.666;6.634;2023-08-24T02:38:58;19.40;1.00
12959;DHT22;6544;51.666;6.634;2023-08-24T02:41:26;19.60;1.00
12959;DHT22;6544;51.666;6.634;2023-08-24T02:43:53;19.60;1.00
12959;DHT22;6544;51.666;6.634;2023-08-24T02:46:21;19.60;1.00
12959;DHT22;6544;51.666;6.634;2023-08-24T02:48:47;19.60;1.00
12959;DHT22;6544;51.666;6.634;2023-08-24T02:51:15;19.60;1.00
12959;DHT22;6544;51.666;6.634;2023-08-24T02:53:43;19.50;1.00
12959;DHT22;6544;51.666;6.634;2023-08-24T02:56:10;19.40;1.00
12959;DHT22;6544;51.666;6.634;2023-08-24T02:58:38;19.40;1.00
12959;DHT22;6544;51.666;6.634;2023-08-24T03:01:05;19.40;1.00
12959;DHT22;6544;51.666;6.634;2023-08-24T03:03:33;19.50;1.00
12959;DHT22;6544;51.666;6.634;2023-08-24T03:06:01;19.40;1.00
12959;DHT22;6544;51.666;6.634;2023-08-24T03:08:29;19.40;1.00
12959;DHT22;6544;51.666;6.634;2023-08-24T03:10:58;19.40;1.00
12959;DHT22;6544;51.666;6.634;2023-08-24T03:13:25;19.40;1.00
12959;DHT22;6544;51.666;6.634;2023-08-24T03:15:52;19.40;1.00
12959;DHT22;6544;51.666;6.634;2023-08-24T03:18:19;19.40;1.00
12959;DHT22;6544;51.666;6.634;2023-08-24T03:20:48;19.40;1.00
12959;DHT22;6544;51.666;6.634;2023-08-24T03:23:15;19.50;1.00
12959;DHT22;6544;51.666;6.634;2023-08-24T03:25:42;19.50;1.00
12959;DHT22;6544;51.666;6.634;2023-08-24T03:28:10;19.50;1.00
12959;DHT22;6544;51.666;6.634;2023-08-24T03:30:39;19.40;1.00
12959;DHT22;6544;51.666;6.634;2023-08-24T03:33:06;19.40;1.00
12959;DHT22;6544;51.666;6.634;2023-08-24T03:35:33;19.50;1.00
12959;DHT22;6544;51.666;6.634;2023-08-24T03:38:00;19.60;1.00
12959;DHT22;6544;51.666;6.634;2023-08-24T03:40:28;19.60;1.00
12959;DHT22;6544;51.666;6.634;2023-08-24T03:42:55;19.50;1.00
12959;DHT22;6544;51.666;6.634;2023-08-24T03:45:24;19.60;1.00
12959;DHT22;6544;51.666;6.634;2023-08-24T03:47:50;19.60;1.00
12959;DHT22;6544;51.666;6.634;2023-08-24T03:50:17;19.60;1.00
12959;DHT22;6544;51.666;6.634;2023-08-24T03:52:44;19.70;1.00
12959;DHT22;6544;51.666;6.634;2023-08-24T03:55:11;19.50;1.00
12959;DHT22;6544;51.666;6.634;2023-08-24T03:57:38;19.50;1.00
12959;DHT22;6544;51.666;6.634;2023-08-24T04:00:06;19.50;1.00
12959;DHT22;6544;51.666;6.634;2023-08-24T04:02:38;19.50;1.00
12959;DHT22;6544;51.666;6.634;2023-08-24T04:05:05;19.30;1.00
12959;DHT22;6544;51.666;6.634;2023-08-24T04:07:32;19.20;1.00
12959;DHT22;6544;51.666;6.634;2023-08-24T04:10:02;19.20;1.00
12959;DHT22;6544;51.666;6.634;2023-08-24T04:12:30;19.30;1.00
12959;DHT22;6544;51.666;6.634;2023-08-24T04:14:57;19.40;1.00
12959;DHT22;6544;51.666;6.634;2023-08-24T04:17:24;19.40;1.00
12959;DHT22;6544;51.666;6.634;2023-08-24T04:19:52;19.40;1.00
12959;DHT22;6544;51.666;6.634;2023-08-24T04:22:19;19.40;1.00
12959;DHT22;6544;51.666;6.634;2023-08-24T04:24:46;19.40;1.00
12959;DHT22;6544;51.666;6.634;2023-08-24T04:27:13;19.30;1.00
12959;DHT22;6544;51.666;6.634;2023-08-24T04:29:40;19.20;1.00
12959;DHT22;6544;51.666;6.634;2023-08-24T04:32:06;19.10;1.00
12959;DHT22;6544;51.666;6.634;2023-08-24T04:34:34;19.10;1.00
12959;DHT22;6544;51.666;6.634;2023-08-24T04:37:02;19.10;2.30
12959;DHT22;6544;51.666;6.634;2023-08-24T04:39:29;19.10;8.40
12959;DHT22;6544;51.666;6.634;2023-08-24T04:41:56;19.20;1.00
12959;DHT22;6544;51.666;6.634;2023-08-24T04:44:23;19.20;1.00
12959;DHT22;6544;51.666;6.634;2023-08-24T04:46:50;19.20;1.00
12959;DHT22;6544;51.666;6.634;2023-08-24T04:49:17;19.00;7.30
12959;DHT22;6544;51.666;6.634;2023-08-24T04:51:44;19.00;44.80
12959;DHT22;6544;51.666;6.634;2023-08-24T04:54:12;19.00;26.80
12959;DHT22;6544;51.666;6.634;2023-08-24T04:56:39;18.90;99.90
12959;DHT22;6544;51.666;6.634;2023-08-24T04:59:05;19.00;99.90
12959;DHT22;6544;51.666;6.634;2023-08-24T05:01:33;18.90;97.00
12959;DHT22;6544;51.666;6.634;2023-08-24T05:04:01;18.90;99.90
12959;DHT22;6544;51.666;6.634;2023-08-24T05:06:27;18.80;99.90
12959;DHT22;6544;51.666;6.634;2023-08-24T05:08:54;18.70;99.90
12959;DHT22;6544;51.666;6.634;2023-08-24T05:11:26;18.60;99.90
12959;DHT22;6544;51.666;6.634;2023-08-24T05:13:54;18.40;99.90
12959;DHT22;6544;51.666;6.634;2023-08-24T05:16:22;18.50;99.90
12959;DHT22;6544;51.666;6.634;2023-08-24T05:18:49;18.50;99.90
12959;DHT22;6544;51.666;6.634;2023-08-24T05:21:16;18.50;99.90
12959;DHT22;6544;51.666;6.634;2023-08-24T05:23:43;18.50;99.90
12959;DHT22;6544;51.666;6.634;2023-08-24T05:26:10;18.60;99.90
12959;DHT22;6544;51.666;6.634;2023-08-24T05:28:38;18.80;99.90
12959;DHT22;6544;51.666;6.634;2023-08-24T05:31:05;19.00;99.90
12959;DHT22;6544;51.666;6.634;2023-08-24T05:33:32;19.00;99.90
12959;DHT22;6544;51.666;6.634;2023-08-24T05:35:59;19.10;99.90
12959;DHT22;6544;51.666;6.634;2023-08-24T05:38:26;19.20;99.90
12959;DHT22;6544;51.666;6.634;2023-08-24T05:40:52;19.20;99.90
12959;DHT22;6544;51.666;6.634;2023-08-24T05:43:19;19.20;99.90
12959;DHT22;6544;51.666;6.634;2023-08-24T05:45:48;19.20;99.90
12959;DHT22;6544;51.666;6.634;2023-08-24T05:48:15;19.10;99.90
12959;DHT22;6544;51.666;6.634;2023-08-24T05:50:43;19.10;99.90
12959;DHT22;6544;51.666;6.634;2023-08-24T05:53:10;19.20;99.90
12959;DHT22;6544;51.666;6.634;2023-08-24T05:55:37;19.20;99.90
12959;DHT22;6544;51.666;6.634;2023-08-24T05:58:04;19.20;99.90
12959;DHT22;6544;51.666;6.634;2023-08-24T06:00:31;19.20;99.90
12959;DHT22;6544;51.666;6.634;2023-08-24T06:02:59;19.40;99.30
12959;DHT22;6544;51.666;6.634;2023-08-24T06:05:26;19.50;78.40
12959;DHT22;6544;51.666;6.634;2023-08-24T06:07:53;19.50;50.50
12959;DHT22;6544;51.666;6.634;2023-08-24T06:10:20;19.60;73.10
12959;DHT22;6544;51.666;6.634;2023-08-24T06:12:47;19.50;51.70
12959;DHT22;6544;51.666;6.634;2023-08-24T06:15:14;19.50;99.90
12959;DHT22;6544;51.666;6.634;2023-08-24T06:17:41;19.40;99.90
12959;DHT22;6544;51.666;6.634;2023-08-24T06:20:11;19.50;96.60
12959;DHT22;6544;51.666;6.634;2023-08-24T06:22:39;19.50;99.90
12959;DHT22;6544;51.666;6.634;2023-08-24T06:25:06;19.60;99.90
12959;DHT22;6544;51.666;6.634;2023-08-24T06:27:34;19.70;68.20
12959;DHT22;6544;51.666;6.634;2023-08-24T06:30:03;19.70;90.70
12959;DHT22;6544;51.666;6.634;2023-08-24T06:32:30;19.70;46.30
12959;DHT22;6544;51.666;6.634;2023-08-24T06:34:57;19.80;74.30
12959;DHT22;6544;51.666;6.634;2023-08-24T06:37:26;19.80;91.10
12959;DHT22;6544;51.666;6.634;2023-08-24T06:39:53;19.80;98.00
12959;DHT22;6544;51.666;6.634;2023-08-24T06:42:20;19.80;55.10
12959;DHT22;6544;51.666;6.634;2023-08-24T06:44:47;19.80;34.60
12959;DHT22;6544;51.666;6.634;2023-08-24T06:47:15;19.80;72.40
12959;DHT22;6544;51.666;6.634;2023-08-24T06:49:42;19.90;58.00
12959;DHT22;6544;51.666;6.634;2023-08-24T06:52:09;20.00;25.60
12959;DHT22;6544;51.666;6.634;2023-08-24T06:54:37;19.90;43.40
12959;DHT22;6544;51.666;6.634;2023-08-24T06:57:04;20.10;56.80
12959;DHT22;6544;51.666;6.634;2023-08-24T06:59:31;20.30;20.70
12959;DHT22;6544;51.666;6.634;2023-08-24T07:01:58;20.30;1.00
12959;DHT22;6544;51.666;6.634;2023-08-24T07:04:26;20.50;1.00
12959;DHT22;6544;51.666;6.634;2023-08-24T07:06:53;20.50;1.00
12959;DHT22;6544;51.666;6.634;2023-08-24T07:09:20;20.70;1.00
12959;DHT22;6544;51.666;6.634;2023-08-24T07:11:49;20.80;1.00
12959;DHT22;6544;51.666;6.634;2023-08-24T07:14:16;20.70;1.00
12959;DHT22;6544;51.666;6.634;2023-08-24T07:16:42;20.80;1.00
12959;DHT22;6544;51.666;6.634;2023-08-24T07:19:09;21.00;1.00
12959;DHT22;6544;51.666;6.634;2023-08-24T07:21:36;21.10;1.00
12959;DHT22;6544;51.666;6.634;2023-08-24T07:24:04;21.20;1.00
12959;DHT22;6544;51.666;6.634;2023-08-24T07:26:31;21.30;1.00
12959;DHT22;6544;51.666;6.634;2023-08-24T07:28:59;21.30;1.00
12959;DHT22;6544;51.666;6.634;2023-08-24T07:31:26;21.50;1.00
12959;DHT22;6544;51.666;6.634;2023-08-24T07:33:53;21.60;1.00
12959;DHT22;6544;51.666;6.634;2023-08-24T07:36:20;21.70;1.00
12959;DHT22;6544;51.666;6.634;2023-08-24T07:38:47;21.80;1.00
12959;DHT22;6544;51.666;6.634;2023-08-24T07:41:14;21.80;1.00
12959;DHT22;6544;51.666;6.634;2023-08-24T07:43:44;21.80;1.00
12959;DHT22;6544;51.666;6.634;2023-08-24T07:46:12;21.70;1.00
12959;DHT22;6544;51.666;6.634;2023-08-24T07:48:39;21.90;1.00
12959;DHT22;6544;51.666;6.634;2023-08-24T07:51:07;22.00;1.00
12959;DHT22;6544;51.666;6.634;2023-08-24T07:53:34;22.10;1.00
12959;DHT22;6544;51.666;6.634;2023-08-24T07:56:01;22.30;1.00
12959;DHT22;6544;51.666;6.634;2023-08-24T07:58:28;22.40;1.00
12959;DHT22;6544;51.666;6.634;2023-08-24T08:00:57;22.50;1.00
12959;DHT22;6544;51.666;6.634;2023-08-24T08:03:25;22.60;1.00
12959;DHT22;6544;51.666;6.634;2023-08-24T08:05:52;22.70;1.00
12959;DHT22;6544;51.666;6.634;2023-08-24T08:08:20;22.80;1.00
12959;DHT22;6544;51.666;6.634;2023-08-24T08:10:47;22.90;1.00
12959;DHT22;6544;51.666;6.634;2023-08-24T08:13:14;23.00;1.00
12959;DHT22;6544;51.666;6.634;2023-08-24T08:15:40;23.10;1.00
12959;DHT22;6544;51.666;6.634;2023-08-24T08:18:07;23.10;1.00
12959;DHT22;6544;51.666;6.634;2023-08-24T08:20:36;23.20;1.00
12959;DHT22;6544;51.666;6.634;2023-08-24T08:23:03;23.20;1.00
12959;DHT22;6544;51.666;6.634;2023-08-24T08:25:30;23.20;1.00
12959;DHT22;6544;51.666;6.634;2023-08-24T08:27:57;23.40;1.00
12959;DHT22;6544;51.666;6.634;2023-08-24T08:30:23;23.50;1.00
12959;DHT22;6544;51.666;6.634;2023-08-24T08:32:50;23.60;1.00
12959;DHT22;6544;51.666;6.634;2023-08-24T08:35:18;23.70;1.00
12959;DHT22;6544;51.666;6.634;2023-08-24T08:37:46;23.80;1.00
12959;DHT22;6544;51.666;6.634;2023-08-24T08:40:15;23.80;99.90
12959;DHT22;6544;51.666;6.634;2023-08-24T08:42:42;23.90;99.90
12959;DHT22;6544;51.666;6.634;2023-08-24T08:45:10;23.90;99.90
12959;DHT22;6544;51.666;6.634;2023-08-24T08:47:38;24.00;1.00
12959;DHT22;6544;51.666;6.634;2023-08-24T08:50:07;24.10;1.00
12959;DHT22;6544;51.666;6.634;2023-08-24T08:52:34;24.10;1.00
12959;DHT22;6544;51.666;6.634;2023-08-24T08:55:03;24.10;99.90
12959;DHT22;6544;51.666;6.634;2023-08-24T08:57:32;24.20;99.90
12959;DHT22;6544;51.666;6.634;2023-08-24T09:00:00;24.30;99.90
12959;DHT22;6544;51.666;6.634;2023-08-24T09:02:29;24.40;99.90
12959;DHT22;6544;51.666;6.634;2023-08-24T09:04:57;24.60;99.90
12959;DHT22;6544;51.666;6.634;2023-08-24T09:07:24;24.60;99.90
12959;DHT22;6544;51.666;6.634;2023-08-24T09:09:52;24.60;99.90
12959;DHT22;6544;51.666;6.634;2023-08-24T09:12:20;24.70;99.90
12959;DHT22;6544;51.666;6.634;2023-08-24T09:14:47;24.70;99.90
12959;DHT22;6544;51.666;6.634;2023-08-24T09:17:23;24.80;99.90
12959;DHT22;6544;51.666;6.634;2023-08-24T09:19:51;24.90;99.90
12959;DHT22;6544;51.666;6.634;2023-08-24T09:22:21;24.90;99.90
12959;DHT22;6544;51.666;6.634;2023-08-24T09:24:49;25.00;99.90
12959;DHT22;6544;51.666;6.634;2023-08-24T09:27:17;25.10;99.90
12959;DHT22;6544;51.666;6.634;2023-08-24T09:29:48;25.20;99.90
12959;DHT22;6544;51.666;6.634;2023-08-24T09:32:21;25.30;99.90
12959;DHT22;6544;51.666;6.634;2023-08-24T09:34:49;25.40;99.90
12959;DHT22;6544;51.666;6.634;2023-08-24T09:37:16;25.40;99.90
12959;DHT22;6544;51.666;6.634;2023-08-24T09:39:44;25.60;99.90
12959;DHT22;6544;51.666;6.634;2023-08-24T09:42:10;25.70;99.90
12959;DHT22;6544;51.666;6.634;2023-08-24T09:44:37;25.80;99.90
12959;DHT22;6544;51.666;6.634;2023-08-24T09:47:10;25.90;99.90
12959;DHT22;6544;51.666;6.634;2023-08-24T09:49:38;26.00;99.90
12959;DHT22;6544;51.666;6.634;2023-08-24T09:52:07;26.00;99.90
12959;DHT22;6544;51.666;6.634;2023-08-24T09:54:37;26.00;99.90
12959;DHT22;6544;51.666;6.634;2023-08-24T09:57:06;26.10;99.90
12959;DHT22;6544;51.666;6.634;2023-08-24T09:59:35;26.20;99.90
12959;DHT22;6544;51.666;6.634;2023-08-24T10:02:14;26.30;99.90
12959;DHT22;6544;51.666;6.634;2023-08-24T10:04:42;26.40;99.90
12959;DHT22;6544;51.666;6.634;2023-08-24T10:07:11;26.40;99.90
12959;DHT22;6544;51.666;6.634;2023-08-24T10:09:51;26.50;99.90
12959;DHT22;6544;51.666;6.634;2023-08-24T10:12:23;26.60;99.90
12959;DHT22;6544;51.666;6.634;2023-08-24T10:14:56;26.70;99.90
12959;DHT22;6544;51.666;6.634;2023-08-24T10:17:24;26.70;99.90
12959;DHT22;6544;51.666;6.634;2023-08-24T10:19:52;26.80;99.90
12959;DHT22;6544;51.666;6.634;2023-08-24T10:22:20;26.80;99.90
12959;DHT22;6544;51.666;6.634;2023-08-24T10:24:47;27.00;99.90
12959;DHT22;6544;51.666;6.634;2023-08-24T10:27:14;27.00;99.90
12959;DHT22;6544;51.666;6.634;2023-08-24T10:29:43;27.10;99.90
12959;DHT22;6544;51.666;6.634;2023-08-24T10:32:10;27.10;99.90
12959;DHT22;6544;51.666;6.634;2023-08-24T10:34:38;27.00;99.90
12959;DHT22;6544;51.666;6.634;2023-08-24T10:37:09;27.00;99.90
12959;DHT22;6544;51.666;6.634;2023-08-24T10:39:43;27.00;99.90
12959;DHT22;6544;51.666;6.634;2023-08-24T10:42:11;27.10;99.90
12959;DHT22;6544;51.666;6.634;2023-08-24T10:44:39;27.10;99.90
12959;DHT22;6544;51.666;6.634;2023-08-24T10:47:14;27.20;99.90
12959;DHT22;6544;51.666;6.634;2023-08-24T10:49:43;27.20;99.90
12959;DHT22;6544;51.666;6.634;2023-08-24T10:52:17;27.20;99.90
12959;DHT22;6544;51.666;6.634;2023-08-24T10:54:45;27.30;99.90
12959;DHT22;6544;51.666;6.634;2023-08-24T10:57:18;27.30;99.90
12959;DHT22;6544;51.666;6.634;2023-08-24T10:59:47;27.30;99.90
12959;DHT22;6544;51.666;6.634;2023-08-24T11:02:23;27.30;99.90
12959;DHT22;6544;51.666;6.634;2023-08-24T11:05:15;27.30;99.90
12959;DHT22;6544;51.666;6.634;2023-08-24T11:08:03;27.40;99.90
12959;DHT22;6544;51.666;6.634;2023-08-24T11:10:32;27.50;99.90
12959;DHT22;6544;51.666;6.634;2023-08-24T11:13:07;27.50;99.90
12959;DHT22;6544;51.666;6.634;2023-08-24T11:15:34;27.60;99.90
12959;DHT22;6544;51.666;6.634;2023-08-24T11:18:15;27.60;99.90
12959;DHT22;6544;51.666;6.634;2023-08-24T11:20:47;27.60;99.90
12959;DHT22;6544;51.666;6.634;2023-08-24T11:23:15;27.60;99.90
12959;DHT22;6544;51.666;6.634;2023-08-24T11:25:42;27.60;99.90
12959;DHT22;6544;51.666;6.634;2023-08-24T11:28:09;27.60;99.90
12959;DHT22;6544;51.666;6.634;2023-08-24T11:30:36;27.60;99.90
12959;DHT22;6544;51.666;6.634;2023-08-24T11:33:04;27.50;99.90
12959;DHT22;6544;51.666;6.634;2023-08-24T11:35:35;27.60;99.90
12959;DHT22;6544;51.666;6.634;2023-08-24T11:38:04;27.50;99.90
12959;DHT22;6544;51.666;6.634;2023-08-24T11:40:31;27.60;99.90
12959;DHT22;6544;51.666;6.634;2023-08-24T11:42:58;27.60;99.90
12959;DHT22;6544;51.666;6.634;2023-08-24T11:45:30;27.60;99.90
12959;DHT22;6544;51.666;6.634;2023-08-24T11:47:58;27.60;99.90
12959;DHT22;6544;51.666;6.634;2023-08-24T11:50:26;27.60;99.90
12959;DHT22;6544;51.666;6.634;2023-08-24T11:52:53;27.60;99.90
12959;DHT22;6544;51.666;6.634;2023-08-24T11:55:22;27.70;99.90
12959;DHT22;6544;51.666;6.634;2023-08-24T11:57:50;27.70;99.90
12959;DHT22;6544;51.666;6.634;2023-08-24T12:00:18;27.70;99.90
12959;DHT22;6544;51.666;6.634;2023-08-24T12:02:45;27.60;99.90
12959;DHT22;6544;51.666;6.634;2023-08-24T12:05:23;27.60;99.90
12959;DHT22;6544;51.666;6.634;2023-08-24T12:07:51;27.60;99.90
12959;DHT22;6544;51.666;6.634;2023-08-24T12:10:18;27.50;99.90
12959;DHT22;6544;51.666;6.634;2023-08-24T12:12:47;27.40;99.90
12959;DHT22;6544;51.666;6.634;2023-08-24T12:15:17;27.30;99.90
12959;DHT22;6544;51.666;6.634;2023-08-24T12:17:46;27.30;99.90
12959;DHT22;6544;51.666;6.634;2023-08-24T12:20:20;27.30;99.90
12959;DHT22;6544;51.666;6.634;2023-08-24T12:22:52;27.30;99.90
12959;DHT22;6544;51.666;6.634;2023-08-24T12:25:22;27.20;99.90
12959;DHT22;6544;51.666;6.634;2023-08-24T12:27:51;27.30;99.90
12959;DHT22;6544;51.666;6.634;2023-08-24T12:30:18;27.30;99.90
12959;DHT22;6544;51.666;6.634;2023-08-24T12:32:47;27.30;99.90
12959;DHT22;6544;51.666;6.634;2023-08-24T12:35:16;27.30;99.90
12959;DHT22;6544;51.666;6.634;2023-08-24T12:37:43;27.30;99.90
12959;DHT22;6544;51.666;6.634;2023-08-24T12:40:12;27.30;99.90
12959;DHT22;6544;51.666;6.634;2023-08-24T12:42:40;27.30;99.90
12959;DHT22;6544;51.666;6.634;2023-08-24T12:45:09;27.40;99.90
12959;DHT22;6544;51.666;6.634;2023-08-24T12:47:36;27.30;99.90
12959;DHT22;6544;51.666;6.634;2023-08-24T12:50:06;27.30;99.90
12959;DHT22;6544;51.666;6.634;2023-08-24T12:52:33;27.30;99.90
12959;DHT22;6544;51.666;6.634;2023-08-24T12:55:00;27.30;99.90
12959;DHT22;6544;51.666;6.634;2023-08-24T12:57:28;27.40;99.90
12959;DHT22;6544;51.666;6.634;2023-08-24T12:59:55;27.40;99.90
12959;DHT22;6544;51.666;6.634;2023-08-24T13:02:23;27.40;99.90
12959;DHT22;6544;51.666;6.634;2023-08-24T13:04:50;27.40;99.90
12959;DHT22;6544;51.666;6.634;2023-08-24T13:07:17;27.30;99.90
12959;DHT22;6544;51.666;6.634;2023-08-24T13:09:44;27.30;99.90
12959;DHT22;6544;51.666;6.634;2023-08-24T13:12:11;27.20;99.90
12959;DHT22;6544;51.666;6.634;2023-08-24T13:14:37;27.10;99.90
12959;DHT22;6544;51.666;6.634;2023-08-24T13:17:04;27.20;99.90
12959;DHT22;6544;51.666;6.634;2023-08-24T13:19:34;27.20;99.90
12959;DHT22;6544;51.666;6.634;2023-08-24T13:22:01;27.20;99.90
12959;DHT22;6544;51.666;6.634;2023-08-24T13:24:27;27.10;99.90
12959;DHT22;6544;51.666;6.634;2023-08-24T13:26:55;27.10;99.90
12959;DHT22;6544;51.666;6.634;2023-08-24T13:29:22;27.10;99.90
12959;DHT22;6544;51.666;6.634;2023-08-24T13:31:51;27.10;99.90
12959;DHT22;6544;51.666;6.634;2023-08-24T13:34:18;27.10;99.90
12959;DHT22;6544;51.666;6.634;2023-08-24T13:36:46;27.00;99.90
12959;DHT22;6544;51.666;6.634;2023-08-24T13:39:13;26.80;99.90
12959;DHT22;6544;51.666;6.634;2023-08-24T13:41:40;26.60;99.90
12959;DHT22;6544;51.666;6.634;2023-08-24T13:44:07;26.50;99.90
12959;DHT22;6544;51.666;6.634;2023-08-24T13:46:35;26.30;99.90
12959;DHT22;6544;51.666;6.634;2023-08-24T13:49:02;26.20;99.90
12959;DHT22;6544;51.666;6.634;2023-08-24T13:51:29;26.20;99.90
12959;DHT22;6544;51.666;6.634;2023-08-24T13:53:57;26.00;99.90
12959;DHT22;6544;51.666;6.634;2023-08-24T13:56:24;26.00;99.90
12959;DHT22;6544;51.666;6.634;2023-08-24T13:58:51;26.10;99.90
12959;DHT22;6544;51.666;6.634;2023-08-24T14:01:18;26.00;99.90
12959;DHT22;6544;51.666;6.634;2023-08-24T14:03:45;25.90;99.90
12959;DHT22;6544;51.666;6.634;2023-08-24T14:06:12;26.00;99.90
12959;DHT22;6544;51.666;6.634;2023-08-24T14:08:40;25.90;99.90
12959;DHT22;6544;51.666;6.634;2023-08-24T14:11:08;25.90;99.90
12959;DHT22;6544;51.666;6.634;2023-08-24T14:13:35;26.00;99.90
12959;DHT22;6544;51.666;6.634;2023-08-24T14:16:02;26.00;99.90
12959;DHT22;6544;51.666;6.634;2023-08-24T14:18:29;25.90;99.90
12959;DHT22;6544;51.666;6.634;2023-08-24T14:20:56;25.90;99.90
12959;DHT22;6544;51.666;6.634;2023-08-24T14:23:23;26.00;99.90
12959;DHT22;6544;51.666;6.634;2023-08-24T14:25:50;26.00;99.90
12959;DHT22;6544;51.666;6.634;2023-08-24T14:28:20;26.00;99.90
12959;DHT22;6544;51.666;6.634;2023-08-24T14:30:48;26.10;99.90
12959;DHT22;6544;51.666;6.634;2023-08-24T14:33:14;26.00;99.90
12959;DHT22;6544;51.666;6.634;2023-08-24T14:35:50;26.00;99.90
12959;DHT22;6544;51.666;6.634;2023-08-24T14:38:17;26.00;99.90
12959;DHT22;6544;51.666;6.634;2023-08-24T14:40:44;26.00;99.90
12959;DHT22;6544;51.666;6.634;2023-08-24T14:43:11;25.90;99.90
12959;DHT22;6544;51.666;6.634;2023-08-24T14:45:39;26.00;99.90
12959;DHT22;6544;51.666;6.634;2023-08-24T14:48:06;26.00;99.90
12959;DHT22;6544;51.666;6.634;2023-08-24T14:50:33;26.10;99.90
12959;DHT22;6544;51.666;6.634;2023-08-24T14:53:02;26.00;99.90
12959;DHT22;6544;51.666;6.634;2023-08-24T14:55:29;25.90;99.90
12959;DHT22;6544;51.666;6.634;2023-08-24T14:57:56;25.90;99.90
12959;DHT22;6544;51.666;6.634;2023-08-24T15:00:25;25.90;99.90
12959;DHT22;6544;51.666;6.634;2023-08-24T15:02:53;25.90;99.90
12959;DHT22;6544;51.666;6.634;2023-08-24T15:05:21;25.90;99.90
12959;DHT22;6544;51.666;6.634;2023-08-24T15:07:51;25.80;99.90
12959;DHT22;6544;51.666;6.634;2023-08-24T15:10:21;25.70;99.90
12959;DHT22;6544;51.666;6.634;2023-08-24T15:12:48;25.90;99.90
12959;DHT22;6544;51.666;6.634;2023-08-24T15:15:15;25.80;99.90
12959;DHT22;6544;51.666;6.634;2023-08-24T15:17:44;25.80;99.90
12959;DHT22;6544;51.666;6.634;2023-08-24T15:20:14;25.80;99.90
12959;DHT22;6544;51.666;6.634;2023-08-24T15:22:42;25.80;99.90
12959;DHT22;6544;51.666;6.634;2023-08-24T15:25:09;25.80;99.90
12959;DHT22;6544;51.666;6.634;2023-08-24T15:27:36;25.70;99.90
12959;DHT22;6544;51.666;6.634;2023-08-24T15:30:07;25.70;99.90
12959;DHT22;6544;51.666;6.634;2023-08-24T15:32:35;25.60;99.90
12959;DHT22;6544;51.666;6.634;2023-08-24T15:35:05;25.60;99.90
12959;DHT22;6544;51.666;6.634;2023-08-24T15:37:34;25.60;99.90
12959;DHT22;6544;51.666;6.634;2023-08-24T15:40:01;25.50;99.90
12959;DHT22;6544;51.666;6.634;2023-08-24T15:42:29;25.40;99.90
12959;DHT22;6544;51.666;6.634;2023-08-24T15:44:59;25.30;99.90
12959;DHT22;6544;51.666;6.634;2023-08-24T15:47:26;25.10;99.90
12959;DHT22;6544;51.666;6.634;2023-08-24T15:49:53;25.00;99.90
12959;DHT22;6544;51.666;6.634;2023-08-24T15:52:20;24.90;1.00
12959;DHT22;6544;51.666;6.634;2023-08-24T15:54:48;24.90;1.00
12959;DHT22;6544;51.666;6.634;2023-08-24T15:57:16;24.80;1.00